sensor_id;sensor_type;location;lat;lon;timestamp;P1;P2;P0
60816;PMS5003;51921;51.518;-3.188;2022-12-11T00:00:56;78;75;
60816;PMS5003;51921;51.518;-3.188;2022-12-11T00:03:22;89;81;
60816;PMS5003;51921;51.518;-3.188;2022-12-11T00:05:48;105;97;
60816;PMS5003;51921;51.518;-3.188;2022-12-11T00:08:13;103;93;
60816;PMS5003;51921;51.518;-3.188;2022-12-11T00:10:39;83;77;
60816;PMS5003;51921;51.518;-3.188;2022-12-11T00:13:04;75;71;
60816;PMS5003;51921;51.518;-3.188;2022-12-11T00:15:30;76;67;
60816;PMS5003;51921;51.518;-3.188;2022-12-11T00:17:55;76;71;
60816;PMS5003;51921;51.518;-3.188;2022-12-11T00:20:21;68;66;
60816;PMS5003;51921;51.518;-3.188;2022-12-11T00:25:12;64;57;
60816;PMS5003;51921;51.518;-3.188;2022-12-11T00:27:38;57;54;
60816;PMS5003;51921;51.518;-3.188;2022-12-11T00:30:03;39;37;
60816;PMS5003;51921;51.518;-3.188;2022-12-11T00:32:28;42;38;
60816;PMS5003;51921;51.518;-3.188;2022-12-11T00:34:53;39;37;
60816;PMS5003;51921;51.518;-3.188;2022-12-11T00:37:19;49;44;
60816;PMS5003;51921;51.518;-3.188;2022-12-11T00:39:45;40;39;
60816;PMS5003;51921;51.518;-3.188;2022-12-11T00:42:10;44;41;
60816;PMS5003;51921;51.518;-3.188;2022-12-11T00:44:36;46;45;
60816;PMS5003;51921;51.518;-3.188;2022-12-11T00:47:01;48;46;
60816;PMS5003;51921;51.518;-3.188;2022-12-11T00:49:26;32;29;
60816;PMS5003;51921;51.518;-3.188;2022-12-11T00:51:52;33;31;
60816;PMS5003;51921;51.518;-3.188;2022-12-11T00:54:17;42;37;
60816;PMS5003;51921;51.518;-3.188;2022-12-11T00:56:42;32;30;
60816;PMS5003;51921;51.518;-3.188;2022-12-11T00:59:08;30;30;
60816;PMS5003;51921;51.518;-3.188;2022-12-11T01:01:33;31;28;
60816;PMS5003;51921;51.518;-3.188;2022-12-11T01:03:58;28;28;
60816;PMS5003;51921;51.518;-3.188;2022-12-11T01:06:25;31;26;
60816;PMS5003;51921;51.518;-3.188;2022-12-11T01:08:50;34;33;
60816;PMS5003;51921;51.518;-3.188;2022-12-11T01:11:15;28;27;
60816;PMS5003;51921;51.518;-3.188;2022-12-11T01:13:40;27;27;
60816;PMS5003;51921;51.518;-3.188;2022-12-11T01:16:06;26;23;
60816;PMS5003;51921;51.518;-3.188;2022-12-11T01:18:31;26;23;
60816;PMS5003;51921;51.518;-3.188;2022-12-11T01:20:56;22;22;
60816;PMS5003;51921;51.518;-3.188;2022-12-11T01:23:22;22;19;
60816;PMS5003;51921;51.518;-3.188;2022-12-11T01:25:47;25;21;
60816;PMS5003;51921;51.518;-3.188;2022-12-11T01:28:13;18;17;
60816;PMS5003;51921;51.518;-3.188;2022-12-11T01:30:39;16;15;
60816;PMS5003;51921;51.518;-3.188;2022-12-11T01:33:05;17;15;
60816;PMS5003;51921;51.518;-3.188;2022-12-11T01:35:30;12;11;
60816;PMS5003;51921;51.518;-3.188;2022-12-11T01:37:56;14;14;
60816;PMS5003;51921;51.518;-3.188;2022-12-11T01:40:22;10;10;
60816;PMS5003;51921;51.518;-3.188;2022-12-11T01:42:48;12;12;
60816;PMS5003;51921;51.518;-3.188;2022-12-11T01:45:22;12;11;
60816;PMS5003;51921;51.518;-3.188;2022-12-11T01:47:40;11;11;
60816;PMS5003;51921;51.518;-3.188;2022-12-11T01:50:05;14;13;
60816;PMS5003;51921;51.518;-3.188;2022-12-11T01:52:30;10;10;
60816;PMS5003;51921;51.518;-3.188;2022-12-11T01:54:56;8;8;
60816;PMS5003;51921;51.518;-3.188;2022-12-11T01:57:21;8;8;
60816;PMS5003;51921;51.518;-3.188;2022-12-11T01:59:47;9;9;
60816;PMS5003;51921;51.518;-3.188;2022-12-11T02:02:14;8;8;
60816;PMS5003;51921;51.518;-3.188;2022-12-11T02:04:39;7;7;
60816;PMS5003;51921;51.518;-3.188;2022-12-11T02:07:04;8;8;
60816;PMS5003;51921;51.518;-3.188;2022-12-11T02:09:31;8;8;
60816;PMS5003;51921;51.518;-3.188;2022-12-11T02:11:58;7;6;
60816;PMS5003;51921;51.518;-3.188;2022-12-11T02:14:24;8;7;
60816;PMS5003;51921;51.518;-3.188;2022-12-11T02:16:49;10;8;
60816;PMS5003;51921;51.518;-3.188;2022-12-11T02:19:17;7;7;
60816;PMS5003;51921;51.518;-3.188;2022-12-11T02:21:39;10;9;
60816;PMS5003;51921;51.518;-3.188;2022-12-11T02:26:33;8;8;
60816;PMS5003;51921;51.518;-3.188;2022-12-11T02:28:55;8;8;
60816;PMS5003;51921;51.518;-3.188;2022-12-11T02:31:21;13;13;
60816;PMS5003;51921;51.518;-3.188;2022-12-11T02:33:48;9;9;
60816;PMS5003;51921;51.518;-3.188;2022-12-11T02:36:12;11;9;
60816;PMS5003;51921;51.518;-3.188;2022-12-11T02:38:38;7;7;
60816;PMS5003;51921;51.518;-3.188;2022-12-11T02:41:02;10;10;
60816;PMS5003;51921;51.518;-3.188;2022-12-11T02:43:28;10;8;
60816;PMS5003;51921;51.518;-3.188;2022-12-11T02:45:54;12;12;
60816;PMS5003;51921;51.518;-3.188;2022-12-11T02:48:19;11;10;
60816;PMS5003;51921;51.518;-3.188;2022-12-11T02:50:46;13;12;
60816;PMS5003;51921;51.518;-3.188;2022-12-11T02:53:11;13;12;
60816;PMS5003;51921;51.518;-3.188;2022-12-11T02:55:36;12;11;
60816;PMS5003;51921;51.518;-3.188;2022-12-11T02:58:03;10;10;
60816;PMS5003;51921;51.518;-3.188;2022-12-11T03:00:29;11;11;
60816;PMS5003;51921;51.518;-3.188;2022-12-11T03:02:53;10;10;
60816;PMS5003;51921;51.518;-3.188;2022-12-11T03:05:19;11;10;
60816;PMS5003;51921;51.518;-3.188;2022-12-11T03:07:45;12;12;
60816;PMS5003;51921;51.518;-3.188;2022-12-11T03:10:11;12;10;
60816;PMS5003;51921;51.518;-3.188;2022-12-11T03:12:37;9;9;
60816;PMS5003;51921;51.518;-3.188;2022-12-11T03:15:03;9;8;
60816;PMS5003;51921;51.518;-3.188;2022-12-11T03:17:29;6;6;
60816;PMS5003;51921;51.518;-3.188;2022-12-11T03:19:54;5;4;
60816;PMS5003;51921;51.518;-3.188;2022-12-11T03:22:20;5;5;
60816;PMS5003;51921;51.518;-3.188;2022-12-11T03:24:45;5;5;
60816;PMS5003;51921;51.518;-3.188;2022-12-11T03:27:12;4;4;
60816;PMS5003;51921;51.518;-3.188;2022-12-11T03:29:36;3;3;
60816;PMS5003;51921;51.518;-3.188;2022-12-11T03:32:03;4;3;
60816;PMS5003;51921;51.518;-3.188;2022-12-11T03:34:28;5;4;
60816;PMS5003;51921;51.518;-3.188;2022-12-11T03:36:53;4;3;
60816;PMS5003;51921;51.518;-3.188;2022-12-11T03:39:20;3;2;
60816;PMS5003;51921;51.518;-3.188;2022-12-11T03:41:44;3;3;
60816;PMS5003;51921;51.518;-3.188;2022-12-11T03:44:10;4;4;
60816;PMS5003;51921;51.518;-3.188;2022-12-11T03:46:37;3;2;
60816;PMS5003;51921;51.518;-3.188;2022-12-11T03:49:02;3;3;
60816;PMS5003;51921;51.518;-3.188;2022-12-11T03:51:27;2;2;
60816;PMS5003;51921;51.518;-3.188;2022-12-11T03:53:53;3;3;
60816;PMS5003;51921;51.518;-3.188;2022-12-11T03:56:18;4;4;
60816;PMS5003;51921;51.518;-3.188;2022-12-11T03:58:44;5;5;
60816;PMS5003;51921;51.518;-3.188;2022-12-11T04:01:10;3;3;
60816;PMS5003;51921;51.518;-3.188;2022-12-11T04:03:35;3;3;
60816;PMS5003;51921;51.518;-3.188;2022-12-11T04:06:01;3;3;
60816;PMS5003;51921;51.518;-3.188;2022-12-11T04:08:27;3;3;
60816;PMS5003;51921;51.518;-3.188;2022-12-11T04:10:52;6;5;
60816;PMS5003;51921;51.518;-3.188;2022-12-11T04:13:18;4;4;
60816;PMS5003;51921;51.518;-3.188;2022-12-11T04:15:44;5;5;
60816;PMS5003;51921;51.518;-3.188;2022-12-11T04:18:09;9;7;
60816;PMS5003;51921;51.518;-3.188;2022-12-11T04:20:35;7;6;
60816;PMS5003;51921;51.518;-3.188;2022-12-11T04:23:02;5;5;
60816;PMS5003;51921;51.518;-3.188;2022-12-11T04:25:26;5;5;
60816;PMS5003;51921;51.518;-3.188;2022-12-11T04:27:52;6;5;
60816;PMS5003;51921;51.518;-3.188;2022-12-11T04:30:18;7;7;
60816;PMS5003;51921;51.518;-3.188;2022-12-11T04:32:43;7;7;
60816;PMS5003;51921;51.518;-3.188;2022-12-11T04:35:09;8;7;
60816;PMS5003;51921;51.518;-3.188;2022-12-11T04:37:35;6;6;
60816;PMS5003;51921;51.518;-3.188;2022-12-11T04:40:00;6;6;
60816;PMS5003;51921;51.518;-3.188;2022-12-11T04:42:26;7;7;
60816;PMS5003;51921;51.518;-3.188;2022-12-11T04:44:51;6;6;
60816;PMS5003;51921;51.518;-3.188;2022-12-11T04:47:17;8;8;
60816;PMS5003;51921;51.518;-3.188;2022-12-11T04:49:43;7;7;
60816;PMS5003;51921;51.518;-3.188;2022-12-11T04:52:08;7;7;
60816;PMS5003;51921;51.518;-3.188;2022-12-11T04:54:34;7;6;
60816;PMS5003;51921;51.518;-3.188;2022-12-11T04:56:59;11;9;
60816;PMS5003;51921;51.518;-3.188;2022-12-11T04:59:25;11;10;
60816;PMS5003;51921;51.518;-3.188;2022-12-11T05:01:51;7;6;
60816;PMS5003;51921;51.518;-3.188;2022-12-11T05:04:16;7;5;
60816;PMS5003;51921;51.518;-3.188;2022-12-11T05:06:42;6;5;
60816;PMS5003;51921;51.518;-3.188;2022-12-11T05:09:09;11;10;
60816;PMS5003;51921;51.518;-3.188;2022-12-11T05:11:33;10;9;
60816;PMS5003;51921;51.518;-3.188;2022-12-11T05:13:59;9;9;
60816;PMS5003;51921;51.518;-3.188;2022-12-11T05:16:25;9;9;
60816;PMS5003;51921;51.518;-3.188;2022-12-11T05:18:50;10;10;
60816;PMS5003;51921;51.518;-3.188;2022-12-11T05:21:16;7;7;
60816;PMS5003;51921;51.518;-3.188;2022-12-11T05:23:42;10;9;
60816;PMS5003;51921;51.518;-3.188;2022-12-11T05:26:09;11;10;
60816;PMS5003;51921;51.518;-3.188;2022-12-11T05:28:34;9;9;
60816;PMS5003;51921;51.518;-3.188;2022-12-11T05:31:00;11;10;
60816;PMS5003;51921;51.518;-3.188;2022-12-11T05:33:25;10;10;
60816;PMS5003;51921;51.518;-3.188;2022-12-11T05:35:51;11;10;
60816;PMS5003;51921;51.518;-3.188;2022-12-11T05:38:16;10;9;
60816;PMS5003;51921;51.518;-3.188;2022-12-11T05:40:41;10;9;
60816;PMS5003;51921;51.518;-3.188;2022-12-11T05:43:07;9;9;
60816;PMS5003;51921;51.518;-3.188;2022-12-11T05:45:33;11;10;
60816;PMS5003;51921;51.518;-3.188;2022-12-11T05:47:58;11;11;
60816;PMS5003;51921;51.518;-3.188;2022-12-11T05:50:24;17;16;
60816;PMS5003;51921;51.518;-3.188;2022-12-11T05:52:50;13;13;
60816;PMS5003;51921;51.518;-3.188;2022-12-11T05:55:15;12;12;
60816;PMS5003;51921;51.518;-3.188;2022-12-11T05:57:40;11;11;
60816;PMS5003;51921;51.518;-3.188;2022-12-11T06:00:07;12;12;
60816;PMS5003;51921;51.518;-3.188;2022-12-11T06:02:33;12;12;
60816;PMS5003;51921;51.518;-3.188;2022-12-11T06:04:57;15;13;
60816;PMS5003;51921;51.518;-3.188;2022-12-11T06:07:23;14;14;
60816;PMS5003;51921;51.518;-3.188;2022-12-11T06:09:48;15;14;
60816;PMS5003;51921;51.518;-3.188;2022-12-11T06:12:13;14;14;
60816;PMS5003;51921;51.518;-3.188;2022-12-11T06:14:39;14;13;
60816;PMS5003;51921;51.518;-3.188;2022-12-11T06:17:04;15;13;
60816;PMS5003;51921;51.518;-3.188;2022-12-11T06:19:30;14;14;
60816;PMS5003;51921;51.518;-3.188;2022-12-11T06:21:56;14;13;
60816;PMS5003;51921;51.518;-3.188;2022-12-11T06:24:21;14;13;
60816;PMS5003;51921;51.518;-3.188;2022-12-11T06:26:47;13;12;
60816;PMS5003;51921;51.518;-3.188;2022-12-11T06:29:12;12;11;
60816;PMS5003;51921;51.518;-3.188;2022-12-11T06:31:38;13;11;
60816;PMS5003;51921;51.518;-3.188;2022-12-11T06:34:03;13;13;
60816;PMS5003;51921;51.518;-3.188;2022-12-11T06:36:28;12;12;
60816;PMS5003;51921;51.518;-3.188;2022-12-11T06:38:54;13;12;
60816;PMS5003;51921;51.518;-3.188;2022-12-11T06:41:20;12;11;
60816;PMS5003;51921;51.518;-3.188;2022-12-11T06:43:45;17;16;
60816;PMS5003;51921;51.518;-3.188;2022-12-11T06:46:11;15;14;
60816;PMS5003;51921;51.518;-3.188;2022-12-11T06:48:36;14;13;
60816;PMS5003;51921;51.518;-3.188;2022-12-11T06:51:03;16;16;
60816;PMS5003;51921;51.518;-3.188;2022-12-11T06:53:27;11;11;
60816;PMS5003;51921;51.518;-3.188;2022-12-11T06:55:53;12;12;
60816;PMS5003;51921;51.518;-3.188;2022-12-11T06:58:18;14;13;
60816;PMS5003;51921;51.518;-3.188;2022-12-11T07:00:44;13;12;
60816;PMS5003;51921;51.518;-3.188;2022-12-11T07:03:10;11;11;
60816;PMS5003;51921;51.518;-3.188;2022-12-11T07:05:35;12;10;
60816;PMS5003;51921;51.518;-3.188;2022-12-11T07:08:01;11;11;
60816;PMS5003;51921;51.518;-3.188;2022-12-11T07:10:26;10;10;
60816;PMS5003;51921;51.518;-3.188;2022-12-11T07:12:52;8;7;
60816;PMS5003;51921;51.518;-3.188;2022-12-11T07:15:18;10;9;
60816;PMS5003;51921;51.518;-3.188;2022-12-11T07:17:43;10;9;
60816;PMS5003;51921;51.518;-3.188;2022-12-11T07:20:09;11;10;
60816;PMS5003;51921;51.518;-3.188;2022-12-11T07:22:35;10;8;
60816;PMS5003;51921;51.518;-3.188;2022-12-11T07:25:00;9;8;
60816;PMS5003;51921;51.518;-3.188;2022-12-11T07:27:26;6;6;
60816;PMS5003;51921;51.518;-3.188;2022-12-11T07:29:52;11;10;
60816;PMS5003;51921;51.518;-3.188;2022-12-11T07:32:17;9;8;
60816;PMS5003;51921;51.518;-3.188;2022-12-11T07:34:43;11;10;
60816;PMS5003;51921;51.518;-3.188;2022-12-11T07:37:09;8;8;
60816;PMS5003;51921;51.518;-3.188;2022-12-11T07:39:34;9;8;
60816;PMS5003;51921;51.518;-3.188;2022-12-11T07:42:00;11;11;
60816;PMS5003;51921;51.518;-3.188;2022-12-11T07:44:25;14;11;
60816;PMS5003;51921;51.518;-3.188;2022-12-11T07:46:51;11;11;
60816;PMS5003;51921;51.518;-3.188;2022-12-11T07:49:17;13;11;
60816;PMS5003;51921;51.518;-3.188;2022-12-11T07:51:42;13;12;
60816;PMS5003;51921;51.518;-3.188;2022-12-11T07:54:10;10;9;
60816;PMS5003;51921;51.518;-3.188;2022-12-11T07:56:34;11;9;
60816;PMS5003;51921;51.518;-3.188;2022-12-11T07:59:00;9;9;
60816;PMS5003;51921;51.518;-3.188;2022-12-11T08:01:26;10;10;
60816;PMS5003;51921;51.518;-3.188;2022-12-11T08:03:51;18;17;
60816;PMS5003;51921;51.518;-3.188;2022-12-11T08:06:17;36;33;
60816;PMS5003;51921;51.518;-3.188;2022-12-11T08:08:42;36;33;
60816;PMS5003;51921;51.518;-3.188;2022-12-11T08:11:08;28;26;
60816;PMS5003;51921;51.518;-3.188;2022-12-11T08:13:33;31;26;
60816;PMS5003;51921;51.518;-3.188;2022-12-11T08:15:58;21;19;
60816;PMS5003;51921;51.518;-3.188;2022-12-11T08:18:23;19;18;
60816;PMS5003;51921;51.518;-3.188;2022-12-11T08:20:49;20;16;
60816;PMS5003;51921;51.518;-3.188;2022-12-11T08:23:15;22;19;
60816;PMS5003;51921;51.518;-3.188;2022-12-11T08:25:40;21;20;
60816;PMS5003;51921;51.518;-3.188;2022-12-11T08:28:06;24;21;
60816;PMS5003;51921;51.518;-3.188;2022-12-11T08:30:31;28;24;
60816;PMS5003;51921;51.518;-3.188;2022-12-11T08:32:57;31;29;
60816;PMS5003;51921;51.518;-3.188;2022-12-11T08:35:22;38;36;
60816;PMS5003;51921;51.518;-3.188;2022-12-11T08:37:48;34;31;
60816;PMS5003;51921;51.518;-3.188;2022-12-11T08:40:13;37;30;
60816;PMS5003;51921;51.518;-3.188;2022-12-11T08:42:38;33;28;
60816;PMS5003;51921;51.518;-3.188;2022-12-11T08:45:05;29;27;
60816;PMS5003;51921;51.518;-3.188;2022-12-11T08:47:30;27;25;
60816;PMS5003;51921;51.518;-3.188;2022-12-11T08:49:55;28;24;
60816;PMS5003;51921;51.518;-3.188;2022-12-11T08:52:21;25;25;
60816;PMS5003;51921;51.518;-3.188;2022-12-11T08:54:46;22;18;
60816;PMS5003;51921;51.518;-3.188;2022-12-11T08:57:11;25;22;
60816;PMS5003;51921;51.518;-3.188;2022-12-11T08:59:36;27;22;
60816;PMS5003;51921;51.518;-3.188;2022-12-11T09:02:02;19;17;
60816;PMS5003;51921;51.518;-3.188;2022-12-11T09:04:27;34;28;
60816;PMS5003;51921;51.518;-3.188;2022-12-11T09:06:53;34;33;
60816;PMS5003;51921;51.518;-3.188;2022-12-11T09:09:18;33;30;
60816;PMS5003;51921;51.518;-3.188;2022-12-11T09:11:43;26;25;
60816;PMS5003;51921;51.518;-3.188;2022-12-11T09:14:09;27;24;
60816;PMS5003;51921;51.518;-3.188;2022-12-11T09:16:34;25;24;
60816;PMS5003;51921;51.518;-3.188;2022-12-11T09:19:00;38;34;
60816;PMS5003;51921;51.518;-3.188;2022-12-11T09:21:26;35;30;
60816;PMS5003;51921;51.518;-3.188;2022-12-11T09:23:51;36;33;
60816;PMS5003;51921;51.518;-3.188;2022-12-11T09:26:16;38;35;
60816;PMS5003;51921;51.518;-3.188;2022-12-11T09:28:41;32;27;
60816;PMS5003;51921;51.518;-3.188;2022-12-11T09:31:07;30;29;
60816;PMS5003;51921;51.518;-3.188;2022-12-11T09:33:32;30;27;
60816;PMS5003;51921;51.518;-3.188;2022-12-11T09:35:57;28;27;
60816;PMS5003;51921;51.518;-3.188;2022-12-11T09:38:23;33;27;
60816;PMS5003;51921;51.518;-3.188;2022-12-11T09:40:48;29;25;
60816;PMS5003;51921;51.518;-3.188;2022-12-11T09:43:15;36;27;
60816;PMS5003;51921;51.518;-3.188;2022-12-11T09:45:39;26;25;
60816;PMS5003;51921;51.518;-3.188;2022-12-11T09:48:05;42;38;
60816;PMS5003;51921;51.518;-3.188;2022-12-11T09:50:31;37;33;
60816;PMS5003;51921;51.518;-3.188;2022-12-11T09:52:58;29;28;
60816;PMS5003;51921;51.518;-3.188;2022-12-11T09:55:22;34;30;
60816;PMS5003;51921;51.518;-3.188;2022-12-11T09:57:48;36;35;
60816;PMS5003;51921;51.518;-3.188;2022-12-11T10:00:15;34;31;
60816;PMS5003;51921;51.518;-3.188;2022-12-11T10:02:42;36;34;
60816;PMS5003;51921;51.518;-3.188;2022-12-11T10:05:06;41;38;
60816;PMS5003;51921;51.518;-3.188;2022-12-11T10:07:29;32;29;
60816;PMS5003;51921;51.518;-3.188;2022-12-11T10:09:56;33;32;
60816;PMS5003;51921;51.518;-3.188;2022-12-11T10:12:25;36;33;
60816;PMS5003;51921;51.518;-3.188;2022-12-11T10:14:49;34;31;
60816;PMS5003;51921;51.518;-3.188;2022-12-11T10:17:12;40;39;
60816;PMS5003;51921;51.518;-3.188;2022-12-11T10:19:36;41;40;
60816;PMS5003;51921;51.518;-3.188;2022-12-11T10:22:01;44;41;
60816;PMS5003;51921;51.518;-3.188;2022-12-11T10:24:28;39;37;
60816;PMS5003;51921;51.518;-3.188;2022-12-11T10:26:54;47;39;
60816;PMS5003;51921;51.518;-3.188;2022-12-11T10:29:18;37;33;
60816;PMS5003;51921;51.518;-3.188;2022-12-11T10:31:45;37;35;
60816;PMS5003;51921;51.518;-3.188;2022-12-11T10:34:10;32;30;
60816;PMS5003;51921;51.518;-3.188;2022-12-11T10:36:35;38;38;
60816;PMS5003;51921;51.518;-3.188;2022-12-11T10:41:30;40;35;
60816;PMS5003;51921;51.518;-3.188;2022-12-11T10:43:51;42;36;
60816;PMS5003;51921;51.518;-3.188;2022-12-11T10:46:16;35;32;
60816;PMS5003;51921;51.518;-3.188;2022-12-11T10:48:44;41;36;
60816;PMS5003;51921;51.518;-3.188;2022-12-11T10:51:06;38;36;
60816;PMS5003;51921;51.518;-3.188;2022-12-11T10:53:32;40;36;
60816;PMS5003;51921;51.518;-3.188;2022-12-11T10:55:57;40;36;
60816;PMS5003;51921;51.518;-3.188;2022-12-11T10:58:22;47;43;
60816;PMS5003;51921;51.518;-3.188;2022-12-11T11:00:48;51;42;
60816;PMS5003;51921;51.518;-3.188;2022-12-11T11:03:19;45;40;
60816;PMS5003;51921;51.518;-3.188;2022-12-11T11:05:39;46;42;
60816;PMS5003;51921;51.518;-3.188;2022-12-11T11:08:11;38;36;
60816;PMS5003;51921;51.518;-3.188;2022-12-11T11:10:29;48;43;
60816;PMS5003;51921;51.518;-3.188;2022-12-11T11:12:59;42;38;
60816;PMS5003;51921;51.518;-3.188;2022-12-11T11:15:21;41;38;
60816;PMS5003;51921;51.518;-3.188;2022-12-11T11:17:45;46;40;
60816;PMS5003;51921;51.518;-3.188;2022-12-11T11:20:12;47;40;
60816;PMS5003;51921;51.518;-3.188;2022-12-11T11:22:36;44;37;
60816;PMS5003;51921;51.518;-3.188;2022-12-11T11:25:01;43;40;
60816;PMS5003;51921;51.518;-3.188;2022-12-11T11:27:27;38;33;
60816;PMS5003;51921;51.518;-3.188;2022-12-11T11:29:53;29;28;
60816;PMS5003;51921;51.518;-3.188;2022-12-11T11:32:19;45;39;
60816;PMS5003;51921;51.518;-3.188;2022-12-11T11:34:43;37;33;
60816;PMS5003;51921;51.518;-3.188;2022-12-11T11:37:21;45;38;
60816;PMS5003;51921;51.518;-3.188;2022-12-11T11:39:36;42;37;
60816;PMS5003;51921;51.518;-3.188;2022-12-11T11:42:01;43;38;
60816;PMS5003;51921;51.518;-3.188;2022-12-11T11:44:26;35;34;
60816;PMS5003;51921;51.518;-3.188;2022-12-11T11:46:54;37;33;
60816;PMS5003;51921;51.518;-3.188;2022-12-11T11:51:44;38;33;
60816;PMS5003;51921;51.518;-3.188;2022-12-11T11:54:08;40;37;
60816;PMS5003;51921;51.518;-3.188;2022-12-11T11:56:34;46;41;
60816;PMS5003;51921;51.518;-3.188;2022-12-11T11:59:00;43;39;
60816;PMS5003;51921;51.518;-3.188;2022-12-11T12:01:25;38;33;
60816;PMS5003;51921;51.518;-3.188;2022-12-11T12:03:50;42;35;
60816;PMS5003;51921;51.518;-3.188;2022-12-11T12:06:16;45;39;
60816;PMS5003;51921;51.518;-3.188;2022-12-11T12:08:43;44;41;
60816;PMS5003;51921;51.518;-3.188;2022-12-11T12:11:08;49;42;
60816;PMS5003;51921;51.518;-3.188;2022-12-11T12:13:34;45;41;
60816;PMS5003;51921;51.518;-3.188;2022-12-11T12:15:57;46;43;
60816;PMS5003;51921;51.518;-3.188;2022-12-11T12:18:23;44;40;
60816;PMS5003;51921;51.518;-3.188;2022-12-11T12:20:49;42;38;
60816;PMS5003;51921;51.518;-3.188;2022-12-11T12:23:22;45;39;
60816;PMS5003;51921;51.518;-3.188;2022-12-11T12:25:39;40;37;
60816;PMS5003;51921;51.518;-3.188;2022-12-11T12:28:07;46;39;
60816;PMS5003;51921;51.518;-3.188;2022-12-11T12:30:30;44;40;
60816;PMS5003;51921;51.518;-3.188;2022-12-11T12:32:59;47;41;
60816;PMS5003;51921;51.518;-3.188;2022-12-11T12:35:25;46;39;
60816;PMS5003;51921;51.518;-3.188;2022-12-11T12:37:49;40;39;
60816;PMS5003;51921;51.518;-3.188;2022-12-11T12:40:13;48;41;
60816;PMS5003;51921;51.518;-3.188;2022-12-11T12:42:39;40;33;
60816;PMS5003;51921;51.518;-3.188;2022-12-11T12:45:06;51;45;
60816;PMS5003;51921;51.518;-3.188;2022-12-11T12:47:29;39;38;
60816;PMS5003;51921;51.518;-3.188;2022-12-11T12:49:54;42;39;
60816;PMS5003;51921;51.518;-3.188;2022-12-11T12:52:20;39;38;
60816;PMS5003;51921;51.518;-3.188;2022-12-11T12:54:46;44;38;
60816;PMS5003;51921;51.518;-3.188;2022-12-11T12:57:11;35;33;
60816;PMS5003;51921;51.518;-3.188;2022-12-11T12:59:37;46;40;
60816;PMS5003;51921;51.518;-3.188;2022-12-11T13:02:02;43;39;
60816;PMS5003;51921;51.518;-3.188;2022-12-11T13:06:53;35;31;
60816;PMS5003;51921;51.518;-3.188;2022-12-11T13:09:20;44;39;
60816;PMS5003;51921;51.518;-3.188;2022-12-11T13:11:45;35;30;
60816;PMS5003;51921;51.518;-3.188;2022-12-11T13:16:36;38;35;
60816;PMS5003;51921;51.518;-3.188;2022-12-11T13:19:01;40;36;
60816;PMS5003;51921;51.518;-3.188;2022-12-11T13:21:28;36;35;
60816;PMS5003;51921;51.518;-3.188;2022-12-11T13:23:51;38;33;
60816;PMS5003;51921;51.518;-3.188;2022-12-11T13:28:46;55;50;
60816;PMS5003;51921;51.518;-3.188;2022-12-11T13:33:36;36;32;
60816;PMS5003;51921;51.518;-3.188;2022-12-11T13:36:05;33;30;
60816;PMS5003;51921;51.518;-3.188;2022-12-11T13:38:22;44;38;
60816;PMS5003;51921;51.518;-3.188;2022-12-11T13:40:50;37;32;
60816;PMS5003;51921;51.518;-3.188;2022-12-11T13:43:15;40;36;
60816;PMS5003;51921;51.518;-3.188;2022-12-11T13:45:42;42;38;
60816;PMS5003;51921;51.518;-3.188;2022-12-11T13:48:06;42;39;
60816;PMS5003;51921;51.518;-3.188;2022-12-11T13:50:30;38;36;
60816;PMS5003;51921;51.518;-3.188;2022-12-11T13:52:56;36;30;
60816;PMS5003;51921;51.518;-3.188;2022-12-11T13:55:22;30;29;
60816;PMS5003;51921;51.518;-3.188;2022-12-11T13:57:46;29;27;
60816;PMS5003;51921;51.518;-3.188;2022-12-11T14:02:37;36;31;
60816;PMS5003;51921;51.518;-3.188;2022-12-11T14:05:03;31;29;
60816;PMS5003;51921;51.518;-3.188;2022-12-11T14:07:33;31;28;
60816;PMS5003;51921;51.518;-3.188;2022-12-11T14:09:52;36;33;
60816;PMS5003;51921;51.518;-3.188;2022-12-11T14:12:18;36;34;
60816;PMS5003;51921;51.518;-3.188;2022-12-11T14:14:44;33;31;
60816;PMS5003;51921;51.518;-3.188;2022-12-11T14:17:10;33;30;
60816;PMS5003;51921;51.518;-3.188;2022-12-11T14:19:34;33;33;
60816;PMS5003;51921;51.518;-3.188;2022-12-11T14:22:00;33;32;
60816;PMS5003;51921;51.518;-3.188;2022-12-11T14:24:25;34;31;
60816;PMS5003;51921;51.518;-3.188;2022-12-11T14:26:50;34;31;
60816;PMS5003;51921;51.518;-3.188;2022-12-11T14:31:42;33;30;
60816;PMS5003;51921;51.518;-3.188;2022-12-11T14:34:10;36;31;
60816;PMS5003;51921;51.518;-3.188;2022-12-11T14:36:32;38;34;
60816;PMS5003;51921;51.518;-3.188;2022-12-11T14:38:59;30;29;
60816;PMS5003;51921;51.518;-3.188;2022-12-11T14:41:24;36;31;
60816;PMS5003;51921;51.518;-3.188;2022-12-11T14:43:50;33;31;
60816;PMS5003;51921;51.518;-3.188;2022-12-11T14:46:16;45;41;
60816;PMS5003;51921;51.518;-3.188;2022-12-11T14:48:42;35;32;
60816;PMS5003;51921;51.518;-3.188;2022-12-11T14:51:06;47;46;
60816;PMS5003;51921;51.518;-3.188;2022-12-11T14:53:32;54;46;
60816;PMS5003;51921;51.518;-3.188;2022-12-11T14:55:58;47;45;
60816;PMS5003;51921;51.518;-3.188;2022-12-11T14:58:23;32;31;
60816;PMS5003;51921;51.518;-3.188;2022-12-11T15:10:31;37;35;
60816;PMS5003;51921;51.518;-3.188;2022-12-11T15:12:55;35;31;
60816;PMS5003;51921;51.518;-3.188;2022-12-11T15:15:21;32;29;
60816;PMS5003;51921;51.518;-3.188;2022-12-11T15:17:47;37;32;
60816;PMS5003;51921;51.518;-3.188;2022-12-11T15:22:40;37;37;
60816;PMS5003;51921;51.518;-3.188;2022-12-11T15:27:31;35;33;
60816;PMS5003;51921;51.518;-3.188;2022-12-11T15:29:55;37;34;
60816;PMS5003;51921;51.518;-3.188;2022-12-11T15:32:21;30;28;
60816;PMS5003;51921;51.518;-3.188;2022-12-11T15:34:46;29;26;
60816;PMS5003;51921;51.518;-3.188;2022-12-11T15:37:17;29;28;
60816;PMS5003;51921;51.518;-3.188;2022-12-11T15:39:36;32;29;
60816;PMS5003;51921;51.518;-3.188;2022-12-11T15:42:02;32;30;
60816;PMS5003;51921;51.518;-3.188;2022-12-11T15:44:27;40;34;
60816;PMS5003;51921;51.518;-3.188;2022-12-11T15:46:52;34;30;
60816;PMS5003;51921;51.518;-3.188;2022-12-11T15:49:17;32;29;
60816;PMS5003;51921;51.518;-3.188;2022-12-11T15:51:43;28;28;
60816;PMS5003;51921;51.518;-3.188;2022-12-11T15:54:15;36;34;
60816;PMS5003;51921;51.518;-3.188;2022-12-11T15:56:34;36;33;
60816;PMS5003;51921;51.518;-3.188;2022-12-11T15:59:01;45;39;
60816;PMS5003;51921;51.518;-3.188;2022-12-11T16:01:25;40;37;
60816;PMS5003;51921;51.518;-3.188;2022-12-11T16:03:51;35;33;
60816;PMS5003;51921;51.518;-3.188;2022-12-11T16:06:17;34;33;
60816;PMS5003;51921;51.518;-3.188;2022-12-11T16:08:42;35;33;
60816;PMS5003;51921;51.518;-3.188;2022-12-11T16:11:08;34;30;
60816;PMS5003;51921;51.518;-3.188;2022-12-11T16:13:33;29;27;
60816;PMS5003;51921;51.518;-3.188;2022-12-11T16:15:58;39;38;
60816;PMS5003;51921;51.518;-3.188;2022-12-11T16:18:24;40;38;
60816;PMS5003;51921;51.518;-3.188;2022-12-11T16:20:50;35;33;
60816;PMS5003;51921;51.518;-3.188;2022-12-11T16:23:15;37;34;
60816;PMS5003;51921;51.518;-3.188;2022-12-11T16:25:41;33;33;
60816;PMS5003;51921;51.518;-3.188;2022-12-11T16:28:06;34;33;
60816;PMS5003;51921;51.518;-3.188;2022-12-11T16:32:56;59;54;
60816;PMS5003;51921;51.518;-3.188;2022-12-11T16:35:22;76;72;
60816;PMS5003;51921;51.518;-3.188;2022-12-11T16:37:48;104;98;